sensor_id;sensor_type;location;lat;lon;timestamp;P1;durP1;ratioP1;P2;durP2;ratioP2
3337;SDS011;1682;49.286;10.788;2023-09-07T00:00:10;6.70;;;5.87;;
3337;SDS011;1682;49.286;10.788;2023-09-07T00:02:57;5.10;;;4.70;;
3337;SDS011;1682;49.286;10.788;2023-09-07T00:05:45;7.97;;;5.40;;
3337;SDS011;1682;49.286;10.788;2023-09-07T00:08:34;7.53;;;5.70;;
3337;SDS011;1682;49.286;10.788;2023-09-07T00:11:21;8.13;;;5.80;;
3337;SDS011;1682;49.286;10.788;2023-09-07T00:14:09;5.90;;;5.30;;
3337;SDS011;1682;49.286;10.788;2023-09-07T00:16:56;6.60;;;5.90;;
3337;SDS011;1682;49.286;10.788;2023-09-07T00:19:44;5.40;;;5.00;;
3337;SDS011;1682;49.286;10.788;2023-09-07T00:22:34;5.70;;;5.10;;
3337;SDS011;1682;49.286;10.788;2023-09-07T00:25:22;6.53;;;6.00;;
3337;SDS011;1682;49.286;10.788;2023-09-07T00:28:10;7.07;;;6.37;;
3337;SDS011;1682;49.286;10.788;2023-09-07T00:30:58;7.23;;;5.70;;
3337;SDS011;1682;49.286;10.788;2023-09-07T00:33:45;6.37;;;5.70;;
3337;SDS011;1682;49.286;10.788;2023-09-07T00:36:33;6.80;;;6.20;;
3337;SDS011;1682;49.286;10.788;2023-09-07T00:39:20;6.50;;;5.90;;
3337;SDS011;1682;49.286;10.788;2023-09-07T00:42:09;9.60;;;6.40;;
3337;SDS011;1682;49.286;10.788;2023-09-07T00:44:56;7.63;;;5.80;;
3337;SDS011;1682;49.286;10.788;2023-09-07T00:47:44;9.40;;;7.07;;
3337;SDS011;1682;49.286;10.788;2023-09-07T00:50:32;6.27;;;5.77;;
3337;SDS011;1682;49.286;10.788;2023-09-07T00:53:19;6.07;;;5.53;;
3337;SDS011;1682;49.286;10.788;2023-09-07T00:56:08;10.00;;;6.20;;
3337;SDS011;1682;49.286;10.788;2023-09-07T00:58:57;8.67;;;6.67;;
3337;SDS011;1682;49.286;10.788;2023-09-07T01:01:45;6.40;;;4.80;;
3337;SDS011;1682;49.286;10.788;2023-09-07T01:04:34;5.97;;;5.47;;
3337;SDS011;1682;49.286;10.788;2023-09-07T01:07:23;7.60;;;6.07;;
3337;SDS011;1682;49.286;10.788;2023-09-07T01:10:11;7.33;;;5.30;;
3337;SDS011;1682;49.286;10.788;2023-09-07T01:12:59;6.63;;;5.70;;
3337;SDS011;1682;49.286;10.788;2023-09-07T01:15:48;8.83;;;6.03;;
3337;SDS011;1682;49.286;10.788;2023-09-07T01:18:36;6.50;;;5.90;;
3337;SDS011;1682;49.286;10.788;2023-09-07T01:21:24;10.30;;;6.00;;
3337;SDS011;1682;49.286;10.788;2023-09-07T01:24:13;8.00;;;7.20;;
3337;SDS011;1682;49.286;10.788;2023-09-07T01:27:01;8.97;;;8.10;;
3337;SDS011;1682;49.286;10.788;2023-09-07T01:29:51;9.93;;;7.90;;
3337;SDS011;1682;49.286;10.788;2023-09-07T01:32:38;6.50;;;5.90;;
3337;SDS011;1682;49.286;10.788;2023-09-07T01:35:26;6.93;;;6.27;;
3337;SDS011;1682;49.286;10.788;2023-09-07T01:38:13;6.07;;;5.47;;
3337;SDS011;1682;49.286;10.788;2023-09-07T01:41:02;9.00;;;6.83;;
3337;SDS011;1682;49.286;10.788;2023-09-07T01:43:50;6.53;;;5.90;;
3337;SDS011;1682;49.286;10.788;2023-09-07T01:46:37;9.50;;;6.10;;
3337;SDS011;1682;49.286;10.788;2023-09-07T01:49:25;7.73;;;6.73;;
3337;SDS011;1682;49.286;10.788;2023-09-07T01:52:12;5.97;;;5.57;;
3337;SDS011;1682;49.286;10.788;2023-09-07T01:55:00;6.40;;;5.90;;
3337;SDS011;1682;49.286;10.788;2023-09-07T01:57:49;8.77;;;7.00;;
3337;SDS011;1682;49.286;10.788;2023-09-07T02:00:36;12.37;;;6.97;;
3337;SDS011;1682;49.286;10.788;2023-09-07T02:03:24;8.07;;;6.10;;
3337;SDS011;1682;49.286;10.788;2023-09-07T02:06:12;6.50;;;5.83;;
3337;SDS011;1682;49.286;10.788;2023-09-07T02:08:59;6.63;;;6.03;;
3337;SDS011;1682;49.286;10.788;2023-09-07T02:11:47;7.33;;;6.63;;
3337;SDS011;1682;49.286;10.788;2023-09-07T02:14:36;7.40;;;6.70;;
3337;SDS011;1682;49.286;10.788;2023-09-07T02:17:24;7.53;;;6.83;;
3337;SDS011;1682;49.286;10.788;2023-09-07T02:20:12;7.03;;;6.40;;
3337;SDS011;1682;49.286;10.788;2023-09-07T02:23:00;6.73;;;6.03;;
3337;SDS011;1682;49.286;10.788;2023-09-07T02:25:48;12.13;;;6.80;;
3337;SDS011;1682;49.286;10.788;2023-09-07T02:28:35;6.93;;;6.33;;
3337;SDS011;1682;49.286;10.788;2023-09-07T02:31:24;8.50;;;6.83;;
3337;SDS011;1682;49.286;10.788;2023-09-07T02:34:11;12.63;;;6.70;;
3337;SDS011;1682;49.286;10.788;2023-09-07T02:36:59;6.80;;;6.10;;
3337;SDS011;1682;49.286;10.788;2023-09-07T02:39:46;6.90;;;5.87;;
3337;SDS011;1682;49.286;10.788;2023-09-07T02:42:34;8.60;;;6.43;;
3337;SDS011;1682;49.286;10.788;2023-09-07T02:45:21;6.30;;;5.75;;
3337;SDS011;1682;49.286;10.788;2023-09-07T02:48:10;9.27;;;7.47;;
3337;SDS011;1682;49.286;10.788;2023-09-07T02:56:02;6.93;;;6.33;;
3337;SDS011;1682;49.286;10.788;2023-09-07T02:58:49;9.90;;;6.97;;
3337;SDS011;1682;49.286;10.788;2023-09-07T03:01:38;7.40;;;6.60;;
3337;SDS011;1682;49.286;10.788;2023-09-07T03:04:27;8.83;;;7.77;;
3337;SDS011;1682;49.286;10.788;2023-09-07T03:07:14;7.60;;;7.00;;
3337;SDS011;1682;49.286;10.788;2023-09-07T03:10:02;12.57;;;7.33;;
3337;SDS011;1682;49.286;10.788;2023-09-07T03:12:49;8.30;;;7.23;;
3337;SDS011;1682;49.286;10.788;2023-09-07T03:15:38;8.07;;;6.90;;
3337;SDS011;1682;49.286;10.788;2023-09-07T03:18:25;11.13;;;7.50;;
3337;SDS011;1682;49.286;10.788;2023-09-07T03:21:14;9.07;;;6.50;;
3337;SDS011;1682;49.286;10.788;2023-09-07T03:24:02;8.77;;;8.07;;
3337;SDS011;1682;49.286;10.788;2023-09-07T03:26:49;7.80;;;7.10;;
3337;SDS011;1682;49.286;10.788;2023-09-07T03:29:36;7.80;;;6.97;;
3337;SDS011;1682;49.286;10.788;2023-09-07T03:32:24;8.33;;;7.53;;
3337;SDS011;1682;49.286;10.788;2023-09-07T03:35:17;8.50;;;7.43;;
3337;SDS011;1682;49.286;10.788;2023-09-07T03:38:05;9.27;;;7.20;;
3337;SDS011;1682;49.286;10.788;2023-09-07T03:40:53;7.63;;;6.87;;
3337;SDS011;1682;49.286;10.788;2023-09-07T03:43:41;9.40;;;7.30;;
3337;SDS011;1682;49.286;10.788;2023-09-07T03:46:29;8.53;;;7.70;;
3337;SDS011;1682;49.286;10.788;2023-09-07T03:49:17;8.70;;;7.73;;
3337;SDS011;1682;49.286;10.788;2023-09-07T03:52:04;12.67;;;7.73;;
3337;SDS011;1682;49.286;10.788;2023-09-07T03:54:54;8.27;;;7.47;;
3337;SDS011;1682;49.286;10.788;2023-09-07T03:57:42;8.37;;;6.93;;
3337;SDS011;1682;49.286;10.788;2023-09-07T04:00:29;8.70;;;7.50;;
3337;SDS011;1682;49.286;10.788;2023-09-07T04:03:17;8.60;;;7.23;;
3337;SDS011;1682;49.286;10.788;2023-09-07T04:06:04;7.77;;;7.10;;
3337;SDS011;1682;49.286;10.788;2023-09-07T04:08:52;8.73;;;7.93;;
3337;SDS011;1682;49.286;10.788;2023-09-07T04:11:41;8.97;;;8.07;;
3337;SDS011;1682;49.286;10.788;2023-09-07T04:14:28;8.67;;;7.50;;
3337;SDS011;1682;49.286;10.788;2023-09-07T04:17:16;7.77;;;7.03;;
3337;SDS011;1682;49.286;10.788;2023-09-07T04:20:03;17.00;;;7.67;;
3337;SDS011;1682;49.286;10.788;2023-09-07T04:22:51;8.70;;;7.17;;
3337;SDS011;1682;49.286;10.788;2023-09-07T04:25:39;8.83;;;7.90;;
3337;SDS011;1682;49.286;10.788;2023-09-07T04:28:28;9.17;;;7.87;;
3337;SDS011;1682;49.286;10.788;2023-09-07T04:31:15;8.47;;;7.67;;
3337;SDS011;1682;49.286;10.788;2023-09-07T04:34:03;9.50;;;8.60;;
3337;SDS011;1682;49.286;10.788;2023-09-07T04:36:50;8.90;;;8.00;;
3337;SDS011;1682;49.286;10.788;2023-09-07T04:39:38;10.17;;;8.07;;
3337;SDS011;1682;49.286;10.788;2023-09-07T04:42:26;10.30;;;8.07;;
3337;SDS011;1682;49.286;10.788;2023-09-07T04:45:14;13.83;;;8.23;;
3337;SDS011;1682;49.286;10.788;2023-09-07T04:48:03;10.07;;;9.07;;
3337;SDS011;1682;49.286;10.788;2023-09-07T04:50:56;8.33;;;7.50;;
3337;SDS011;1682;49.286;10.788;2023-09-07T04:53:44;9.03;;;8.17;;
3337;SDS011;1682;49.286;10.788;2023-09-07T04:56:31;12.90;;;9.63;;
3337;SDS011;1682;49.286;10.788;2023-09-07T04:59:19;9.80;;;8.80;;
3337;SDS011;1682;49.286;10.788;2023-09-07T05:02:08;9.50;;;8.60;;
3337;SDS011;1682;49.286;10.788;2023-09-07T05:04:57;10.53;;;9.43;;
3337;SDS011;1682;49.286;10.788;2023-09-07T05:07:44;14.07;;;9.53;;
3337;SDS011;1682;49.286;10.788;2023-09-07T05:10:32;9.50;;;8.50;;
3337;SDS011;1682;49.286;10.788;2023-09-07T05:13:20;10.17;;;9.17;;
3337;SDS011;1682;49.286;10.788;2023-09-07T05:16:07;9.40;;;8.50;;
3337;SDS011;1682;49.286;10.788;2023-09-07T05:18:56;9.07;;;8.20;;
3337;SDS011;1682;49.286;10.788;2023-09-07T05:21:44;9.87;;;7.77;;
3337;SDS011;1682;49.286;10.788;2023-09-07T05:24:31;10.50;;;8.30;;
3337;SDS011;1682;49.286;10.788;2023-09-07T05:27:19;9.20;;;8.40;;
3337;SDS011;1682;49.286;10.788;2023-09-07T05:30:06;9.80;;;8.10;;
3337;SDS011;1682;49.286;10.788;2023-09-07T05:32:54;10.93;;;8.80;;
3337;SDS011;1682;49.286;10.788;2023-09-07T05:35:43;9.43;;;8.30;;
3337;SDS011;1682;49.286;10.788;2023-09-07T05:38:31;11.63;;;8.20;;
3337;SDS011;1682;49.286;10.788;2023-09-07T05:41:18;9.53;;;8.50;;
3337;SDS011;1682;49.286;10.788;2023-09-07T05:44:06;10.10;;;9.03;;
3337;SDS011;1682;49.286;10.788;2023-09-07T05:46:53;9.30;;;8.40;;
3337;SDS011;1682;49.286;10.788;2023-09-07T05:49:40;10.73;;;9.03;;
3337;SDS011;1682;49.286;10.788;2023-09-07T05:52:29;9.20;;;8.33;;
3337;SDS011;1682;49.286;10.788;2023-09-07T05:55:17;9.43;;;8.43;;
3337;SDS011;1682;49.286;10.788;2023-09-07T05:58:05;10.20;;;8.77;;
3337;SDS011;1682;49.286;10.788;2023-09-07T06:00:52;8.70;;;7.90;;
3337;SDS011;1682;49.286;10.788;2023-09-07T06:03:40;9.13;;;7.83;;
3337;SDS011;1682;49.286;10.788;2023-09-07T06:06:27;9.10;;;8.23;;
3337;SDS011;1682;49.286;10.788;2023-09-07T06:09:17;13.23;;;9.13;;
3337;SDS011;1682;49.286;10.788;2023-09-07T06:12:04;16.23;;;10.20;;
3337;SDS011;1682;49.286;10.788;2023-09-07T06:14:52;8.23;;;7.40;;
3337;SDS011;1682;49.286;10.788;2023-09-07T06:17:39;9.23;;;6.50;;
3337;SDS011;1682;49.286;10.788;2023-09-07T06:20:27;9.47;;;8.57;;
3337;SDS011;1682;49.286;10.788;2023-09-07T06:23:14;8.23;;;7.53;;
3337;SDS011;1682;49.286;10.788;2023-09-07T06:26:03;8.43;;;7.63;;
3337;SDS011;1682;49.286;10.788;2023-09-07T06:28:50;11.87;;;9.10;;
3337;SDS011;1682;49.286;10.788;2023-09-07T06:31:38;9.40;;;8.70;;
3337;SDS011;1682;49.286;10.788;2023-09-07T06:34:25;8.50;;;7.67;;
3337;SDS011;1682;49.286;10.788;2023-09-07T06:37:13;10.83;;;8.50;;
3337;SDS011;1682;49.286;10.788;2023-09-07T06:40:00;8.50;;;7.63;;
3337;SDS011;1682;49.286;10.788;2023-09-07T06:42:50;9.50;;;8.53;;
3337;SDS011;1682;49.286;10.788;2023-09-07T06:45:38;14.87;;;7.33;;
3337;SDS011;1682;49.286;10.788;2023-09-07T06:48:25;19.13;;;7.47;;
3337;SDS011;1682;49.286;10.788;2023-09-07T06:51:13;14.93;;;8.23;;
3337;SDS011;1682;49.286;10.788;2023-09-07T06:54:00;9.87;;;7.17;;
3337;SDS011;1682;49.286;10.788;2023-09-07T06:56:49;11.50;;;7.57;;
3337;SDS011;1682;49.286;10.788;2023-09-07T06:59:37;9.60;;;6.77;;
3337;SDS011;1682;49.286;10.788;2023-09-07T07:02:25;17.63;;;12.27;;
3337;SDS011;1682;49.286;10.788;2023-09-07T07:05:12;12.23;;;9.60;;
3337;SDS011;1682;49.286;10.788;2023-09-07T07:08:00;8.70;;;7.80;;
3337;SDS011;1682;49.286;10.788;2023-09-07T07:10:47;7.70;;;6.10;;
3337;SDS011;1682;49.286;10.788;2023-09-07T07:13:35;6.17;;;5.60;;
3337;SDS011;1682;49.286;10.788;2023-09-07T07:16:24;6.93;;;6.33;;
3337;SDS011;1682;49.286;10.788;2023-09-07T07:19:12;7.87;;;6.60;;
3337;SDS011;1682;49.286;10.788;2023-09-07T07:21:59;8.00;;;6.93;;
3337;SDS011;1682;49.286;10.788;2023-09-07T07:24:47;11.57;;;7.57;;
3337;SDS011;1682;49.286;10.788;2023-09-07T07:27:34;10.33;;;6.30;;
3337;SDS011;1682;49.286;10.788;2023-09-07T07:30:21;8.13;;;5.97;;
3337;SDS011;1682;49.286;10.788;2023-09-07T07:33:10;7.10;;;6.60;;
3337;SDS011;1682;49.286;10.788;2023-09-07T07:35:58;7.00;;;6.30;;
3337;SDS011;1682;49.286;10.788;2023-09-07T07:38:45;7.80;;;6.70;;
3337;SDS011;1682;49.286;10.788;2023-09-07T07:41:33;11.27;;;8.40;;
3337;SDS011;1682;49.286;10.788;2023-09-07T07:44:21;8.07;;;6.80;;
3337;SDS011;1682;49.286;10.788;2023-09-07T07:47:08;6.10;;;5.00;;
3337;SDS011;1682;49.286;10.788;2023-09-07T07:49:57;7.60;;;6.40;;
3337;SDS011;1682;49.286;10.788;2023-09-07T07:52:44;6.87;;;6.17;;
3337;SDS011;1682;49.286;10.788;2023-09-07T07:55:34;8.50;;;7.23;;
3337;SDS011;1682;49.286;10.788;2023-09-07T07:58:23;9.00;;;5.60;;
3337;SDS011;1682;49.286;10.788;2023-09-07T08:01:14;9.90;;;6.03;;
3337;SDS011;1682;49.286;10.788;2023-09-07T08:04:02;6.30;;;5.53;;
3337;SDS011;1682;49.286;10.788;2023-09-07T08:06:51;5.50;;;4.93;;
3337;SDS011;1682;49.286;10.788;2023-09-07T08:09:43;6.50;;;5.90;;
3337;SDS011;1682;49.286;10.788;2023-09-07T08:12:31;6.20;;;5.63;;
3337;SDS011;1682;49.286;10.788;2023-09-07T08:15:18;6.30;;;5.13;;
3337;SDS011;1682;49.286;10.788;2023-09-07T08:18:07;5.97;;;5.23;;
3337;SDS011;1682;49.286;10.788;2023-09-07T08:20:55;6.43;;;5.83;;
3337;SDS011;1682;49.286;10.788;2023-09-07T08:23:44;8.33;;;5.90;;
3337;SDS011;1682;49.286;10.788;2023-09-07T08:26:31;7.23;;;5.10;;
3337;SDS011;1682;49.286;10.788;2023-09-07T08:29:19;5.07;;;4.77;;
3337;SDS011;1682;49.286;10.788;2023-09-07T08:32:06;7.10;;;6.20;;
3337;SDS011;1682;49.286;10.788;2023-09-07T08:34:57;8.43;;;5.60;;
3337;SDS011;1682;49.286;10.788;2023-09-07T08:37:46;6.73;;;6.23;;
3337;SDS011;1682;49.286;10.788;2023-09-07T08:40:35;6.43;;;5.13;;
3337;SDS011;1682;49.286;10.788;2023-09-07T08:43:25;8.60;;;4.80;;
3337;SDS011;1682;49.286;10.788;2023-09-07T08:46:15;4.57;;;4.27;;
3337;SDS011;1682;49.286;10.788;2023-09-07T08:49:02;5.07;;;4.67;;
3337;SDS011;1682;49.286;10.788;2023-09-07T08:51:50;5.87;;;5.37;;
3337;SDS011;1682;49.286;10.788;2023-09-07T08:54:38;4.50;;;4.17;;
3337;SDS011;1682;49.286;10.788;2023-09-07T08:57:27;5.27;;;4.80;;
3337;SDS011;1682;49.286;10.788;2023-09-07T09:00:17;4.63;;;4.17;;
3337;SDS011;1682;49.286;10.788;2023-09-07T09:03:05;4.20;;;3.90;;
3337;SDS011;1682;49.286;10.788;2023-09-07T09:05:53;5.80;;;4.80;;
3337;SDS011;1682;49.286;10.788;2023-09-07T09:08:43;6.70;;;4.50;;
3337;SDS011;1682;49.286;10.788;2023-09-07T09:11:31;4.60;;;4.30;;
3337;SDS011;1682;49.286;10.788;2023-09-07T09:14:20;6.17;;;5.60;;
3337;SDS011;1682;49.286;10.788;2023-09-07T09:17:10;6.27;;;4.37;;
3337;SDS011;1682;49.286;10.788;2023-09-07T09:19:58;5.53;;;5.03;;
3337;SDS011;1682;49.286;10.788;2023-09-07T09:22:45;4.90;;;4.50;;
3337;SDS011;1682;49.286;10.788;2023-09-07T09:25:33;5.63;;;4.97;;
3337;SDS011;1682;49.286;10.788;2023-09-07T09:28:20;7.43;;;5.03;;
3337;SDS011;1682;49.286;10.788;2023-09-07T09:31:09;4.53;;;4.20;;
3337;SDS011;1682;49.286;10.788;2023-09-07T09:33:58;5.57;;;5.07;;
3337;SDS011;1682;49.286;10.788;2023-09-07T09:36:45;4.57;;;4.27;;
3337;SDS011;1682;49.286;10.788;2023-09-07T09:39:32;5.97;;;4.37;;
3337;SDS011;1682;49.286;10.788;2023-09-07T09:42:21;4.35;;;4.00;;
3337;SDS011;1682;49.286;10.788;2023-09-07T09:45:10;5.83;;;5.33;;
3337;SDS011;1682;49.286;10.788;2023-09-07T09:47:59;4.87;;;4.30;;
3337;SDS011;1682;49.286;10.788;2023-09-07T09:50:46;5.40;;;5.07;;
3337;SDS011;1682;49.286;10.788;2023-09-07T09:53:34;4.50;;;4.10;;
3337;SDS011;1682;49.286;10.788;2023-09-07T09:56:22;4.43;;;4.10;;
3337;SDS011;1682;49.286;10.788;2023-09-07T09:59:11;4.40;;;4.10;;
3337;SDS011;1682;49.286;10.788;2023-09-07T10:01:59;3.83;;;3.63;;
3337;SDS011;1682;49.286;10.788;2023-09-07T10:04:49;4.73;;;4.20;;
3337;SDS011;1682;49.286;10.788;2023-09-07T10:07:41;14.80;;;9.60;;
3337;SDS011;1682;49.286;10.788;2023-09-07T10:10:31;5.10;;;4.80;;
3337;SDS011;1682;49.286;10.788;2023-09-07T10:13:28;5.40;;;5.00;;
3337;SDS011;1682;49.286;10.788;2023-09-07T10:16:16;5.50;;;5.00;;
3337;SDS011;1682;49.286;10.788;2023-09-07T10:19:04;7.40;;;5.00;;
3337;SDS011;1682;49.286;10.788;2023-09-07T10:22:02;3.80;;;3.50;;
3337;SDS011;1682;49.286;10.788;2023-09-07T10:24:56;5.37;;;4.93;;
3337;SDS011;1682;49.286;10.788;2023-09-07T10:27:44;3.70;;;3.40;;
3337;SDS011;1682;49.286;10.788;2023-09-07T10:30:32;5.23;;;4.73;;
3337;SDS011;1682;49.286;10.788;2023-09-07T10:33:20;5.23;;;4.20;;
3337;SDS011;1682;49.286;10.788;2023-09-07T10:36:07;5.50;;;5.10;;
3337;SDS011;1682;49.286;10.788;2023-09-07T10:38:56;5.57;;;3.77;;
3337;SDS011;1682;49.286;10.788;2023-09-07T10:41:44;3.80;;;3.50;;
3337;SDS011;1682;49.286;10.788;2023-09-07T10:44:33;4.90;;;4.50;;
3337;SDS011;1682;49.286;10.788;2023-09-07T10:47:20;3.40;;;3.10;;
3337;SDS011;1682;49.286;10.788;2023-09-07T10:50:08;4.03;;;3.40;;
3337;SDS011;1682;49.286;10.788;2023-09-07T10:52:58;4.20;;;3.90;;
3337;SDS011;1682;49.286;10.788;2023-09-07T10:55:46;4.20;;;3.50;;
3337;SDS011;1682;49.286;10.788;2023-09-07T10:58:35;5.90;;;4.17;;
3337;SDS011;1682;49.286;10.788;2023-09-07T11:01:24;3.50;;;3.30;;
3337;SDS011;1682;49.286;10.788;2023-09-07T11:04:11;2.90;;;2.70;;
3337;SDS011;1682;49.286;10.788;2023-09-07T11:06:59;3.30;;;3.10;;
3337;SDS011;1682;49.286;10.788;2023-09-07T11:09:47;3.50;;;3.20;;
3337;SDS011;1682;49.286;10.788;2023-09-07T11:12:40;3.37;;;3.17;;
3337;SDS011;1682;49.286;10.788;2023-09-07T11:15:27;3.77;;;3.57;;
3337;SDS011;1682;49.286;10.788;2023-09-07T11:18:19;8.63;;;4.73;;
3337;SDS011;1682;49.286;10.788;2023-09-07T11:21:06;4.43;;;3.70;;
3337;SDS011;1682;49.286;10.788;2023-09-07T11:23:54;4.00;;;3.60;;
3337;SDS011;1682;49.286;10.788;2023-09-07T11:26:44;3.80;;;3.50;;
3337;SDS011;1682;49.286;10.788;2023-09-07T11:29:33;5.03;;;3.63;;
3337;SDS011;1682;49.286;10.788;2023-09-07T11:32:21;3.50;;;3.30;;
3337;SDS011;1682;49.286;10.788;2023-09-07T11:35:09;4.30;;;3.90;;
3337;SDS011;1682;49.286;10.788;2023-09-07T11:37:57;5.20;;;4.60;;
3337;SDS011;1682;49.286;10.788;2023-09-07T11:40:46;3.77;;;3.57;;
3337;SDS011;1682;49.286;10.788;2023-09-07T11:43:33;3.83;;;3.03;;
3337;SDS011;1682;49.286;10.788;2023-09-07T11:46:22;4.40;;;3.53;;
3337;SDS011;1682;49.286;10.788;2023-09-07T11:49:09;3.93;;;3.07;;
3337;SDS011;1682;49.286;10.788;2023-09-07T11:51:57;3.30;;;3.03;;
3337;SDS011;1682;49.286;10.788;2023-09-07T11:54:44;2.70;;;2.60;;
3337;SDS011;1682;49.286;10.788;2023-09-07T11:57:32;4.00;;;3.60;;
3337;SDS011;1682;49.286;10.788;2023-09-07T12:00:19;3.20;;;2.90;;
3337;SDS011;1682;49.286;10.788;2023-09-07T12:03:09;3.15;;;2.78;;
3337;SDS011;1682;49.286;10.788;2023-09-07T12:05:56;3.53;;;2.65;;
3337;SDS011;1682;49.286;10.788;2023-09-07T12:08:57;2.45;;;2.25;;
3337;SDS011;1682;49.286;10.788;2023-09-07T12:11:45;2.72;;;2.45;;
3337;SDS011;1682;49.286;10.788;2023-09-07T12:14:32;1.92;;;1.83;;
3337;SDS011;1682;49.286;10.788;2023-09-07T12:17:20;2.50;;;2.30;;
3337;SDS011;1682;49.286;10.788;2023-09-07T12:20:09;3.03;;;2.78;;
3337;SDS011;1682;49.286;10.788;2023-09-07T12:22:58;2.97;;;2.35;;
3337;SDS011;1682;49.286;10.788;2023-09-07T12:25:46;2.33;;;2.13;;
3337;SDS011;1682;49.286;10.788;2023-09-07T12:28:36;2.58;;;2.47;;
3337;SDS011;1682;49.286;10.788;2023-09-07T12:31:24;2.88;;;2.60;;
3337;SDS011;1682;49.286;10.788;2023-09-07T12:34:11;3.08;;;2.50;;
3337;SDS011;1682;49.286;10.788;2023-09-07T12:37:01;3.88;;;3.58;;
3337;SDS011;1682;49.286;10.788;2023-09-07T12:39:49;2.63;;;2.42;;
3337;SDS011;1682;49.286;10.788;2023-09-07T12:42:38;3.05;;;2.80;;
3337;SDS011;1682;49.286;10.788;2023-09-07T12:45:26;4.13;;;2.75;;
3337;SDS011;1682;49.286;10.788;2023-09-07T12:48:13;2.70;;;2.60;;
3337;SDS011;1682;49.286;10.788;2023-09-07T12:51:01;4.68;;;2.92;;
3337;SDS011;1682;49.286;10.788;2023-09-07T12:53:50;6.13;;;5.63;;
3337;SDS011;1682;49.286;10.788;2023-09-07T12:56:37;4.68;;;4.38;;
3337;SDS011;1682;49.286;10.788;2023-09-07T12:59:25;2.83;;;2.42;;
3337;SDS011;1682;49.286;10.788;2023-09-07T13:02:12;3.30;;;3.10;;
3337;SDS011;1682;49.286;10.788;2023-09-07T13:05:00;2.55;;;2.45;;
3337;SDS011;1682;49.286;10.788;2023-09-07T13:07:50;2.50;;;2.30;;
3337;SDS011;1682;49.286;10.788;2023-09-07T13:10:41;2.72;;;2.30;;
3337;SDS011;1682;49.286;10.788;2023-09-07T13:13:28;4.70;;;2.70;;
3337;SDS011;1682;49.286;10.788;2023-09-07T13:16:16;4.68;;;2.80;;
3337;SDS011;1682;49.286;10.788;2023-09-07T13:19:03;2.30;;;2.10;;
3337;SDS011;1682;49.286;10.788;2023-09-07T13:21:51;2.30;;;2.20;;
3337;SDS011;1682;49.286;10.788;2023-09-07T13:24:39;2.53;;;2.42;;
3337;SDS011;1682;49.286;10.788;2023-09-07T13:27:28;3.08;;;2.70;;
3337;SDS011;1682;49.286;10.788;2023-09-07T13:30:15;3.08;;;2.88;;
3337;SDS011;1682;49.286;10.788;2023-09-07T13:33:03;2.45;;;2.25;;
3337;SDS011;1682;49.286;10.788;2023-09-07T13:35:51;2.80;;;2.60;;
3337;SDS011;1682;49.286;10.788;2023-09-07T13:38:38;3.10;;;2.90;;
3337;SDS011;1682;49.286;10.788;2023-09-07T13:41:26;4.45;;;3.00;;
3337;SDS011;1682;49.286;10.788;2023-09-07T13:44:15;5.07;;;2.67;;
3337;SDS011;1682;49.286;10.788;2023-09-07T13:47:03;2.85;;;2.65;;
3337;SDS011;1682;49.286;10.788;2023-09-07T13:49:50;3.90;;;3.17;;
3337;SDS011;1682;49.286;10.788;2023-09-07T13:52:38;2.88;;;2.63;;
3337;SDS011;1682;49.286;10.788;2023-09-07T13:55:25;4.53;;;2.80;;
3337;SDS011;1682;49.286;10.788;2023-09-07T13:58:13;2.78;;;2.58;;
3337;SDS011;1682;49.286;10.788;2023-09-07T14:01:02;2.37;;;2.27;;
3337;SDS011;1682;49.286;10.788;2023-09-07T14:03:50;2.70;;;2.50;;
3337;SDS011;1682;49.286;10.788;2023-09-07T14:06:37;2.65;;;2.45;;
3337;SDS011;1682;49.286;10.788;2023-09-07T14:09:25;3.85;;;2.75;;
3337;SDS011;1682;49.286;10.788;2023-09-07T14:12:12;2.85;;;2.65;;
3337;SDS011;1682;49.286;10.788;2023-09-07T14:15:00;3.17;;;2.75;;
3337;SDS011;1682;49.286;10.788;2023-09-07T14:17:48;5.97;;;2.90;;
3337;SDS011;1682;49.286;10.788;2023-09-07T14:20:36;3.80;;;2.60;;
3337;SDS011;1682;49.286;10.788;2023-09-07T14:23:23;4.55;;;2.67;;
3337;SDS011;1682;49.286;10.788;2023-09-07T14:26:11;2.40;;;2.20;;
3337;SDS011;1682;49.286;10.788;2023-09-07T14:28:59;2.90;;;2.70;;
3337;SDS011;1682;49.286;10.788;2023-09-07T14:31:46;3.63;;;3.28;;
3337;SDS011;1682;49.286;10.788;2023-09-07T14:34:35;4.45;;;2.28;;
3337;SDS011;1682;49.286;10.788;2023-09-07T14:37:23;2.83;;;2.58;;
3337;SDS011;1682;49.286;10.788;2023-09-07T14:40:11;2.00;;;1.90;;
3337;SDS011;1682;49.286;10.788;2023-09-07T14:42:59;5.28;;;3.00;;
3337;SDS011;1682;49.286;10.788;2023-09-07T14:45:47;3.33;;;2.50;;
3337;SDS011;1682;49.286;10.788;2023-09-07T14:48:34;3.15;;;2.95;;
3337;SDS011;1682;49.286;10.788;2023-09-07T14:51:23;6.28;;;3.17;;
3337;SDS011;1682;49.286;10.788;2023-09-07T14:54:10;3.00;;;2.80;;
3337;SDS011;1682;49.286;10.788;2023-09-07T14:56:58;4.32;;;4.05;;
3337;SDS011;1682;49.286;10.788;2023-09-07T14:59:46;3.75;;;3.45;;
3337;SDS011;1682;49.286;10.788;2023-09-07T15:02:34;3.78;;;3.55;;
3337;SDS011;1682;49.286;10.788;2023-09-07T15:05:22;5.70;;;3.20;;
3337;SDS011;1682;49.286;10.788;2023-09-07T15:08:10;3.00;;;2.90;;
3337;SDS011;1682;49.286;10.788;2023-09-07T15:10:58;6.50;;;3.20;;
3337;SDS011;1682;49.286;10.788;2023-09-07T15:13:46;4.30;;;3.90;;
3337;SDS011;1682;49.286;10.788;2023-09-07T15:16:35;4.10;;;3.80;;
3337;SDS011;1682;49.286;10.788;2023-09-07T15:19:22;3.60;;;3.40;;
3337;SDS011;1682;49.286;10.788;2023-09-07T15:22:10;3.60;;;3.20;;
3337;SDS011;1682;49.286;10.788;2023-09-07T15:24:59;3.43;;;3.23;;
3337;SDS011;1682;49.286;10.788;2023-09-07T15:27:47;3.63;;;3.40;;
3337;SDS011;1682;49.286;10.788;2023-09-07T15:30:34;4.00;;;3.70;;
3337;SDS011;1682;49.286;10.788;2023-09-07T15:33:22;3.43;;;3.13;;
3337;SDS011;1682;49.286;10.788;2023-09-07T15:36:10;3.63;;;3.40;;
3337;SDS011;1682;49.286;10.788;2023-09-07T15:38:58;4.50;;;3.70;;
3337;SDS011;1682;49.286;10.788;2023-09-07T15:41:47;4.80;;;3.70;;
3337;SDS011;1682;49.286;10.788;2023-09-07T15:44:35;4.20;;;3.80;;
3337;SDS011;1682;49.286;10.788;2023-09-07T15:47:22;5.20;;;4.80;;
3337;SDS011;1682;49.286;10.788;2023-09-07T15:50:10;3.90;;;3.50;;
3337;SDS011;1682;49.286;10.788;2023-09-07T15:52:58;3.23;;;2.90;;
3337;SDS011;1682;49.286;10.788;2023-09-07T15:55:46;4.50;;;4.10;;
3337;SDS011;1682;49.286;10.788;2023-09-07T15:58:35;5.23;;;3.57;;
3337;SDS011;1682;49.286;10.788;2023-09-07T16:01:22;4.00;;;3.60;;
3337;SDS011;1682;49.286;10.788;2023-09-07T16:04:10;5.40;;;3.47;;
3337;SDS011;1682;49.286;10.788;2023-09-07T16:06:57;3.93;;;3.20;;
3337;SDS011;1682;49.286;10.788;2023-09-07T16:09:45;3.93;;;3.73;;
3337;SDS011;1682;49.286;10.788;2023-09-07T16:12:33;3.93;;;3.63;;
3337;SDS011;1682;49.286;10.788;2023-09-07T16:15:22;3.50;;;3.20;;
3337;SDS011;1682;49.286;10.788;2023-09-07T16:18:10;3.60;;;3.30;;
3337;SDS011;1682;49.286;10.788;2023-09-07T16:21:00;5.87;;;4.40;;
3337;SDS011;1682;49.286;10.788;2023-09-07T16:23:51;3.40;;;3.20;;
3337;SDS011;1682;49.286;10.788;2023-09-07T16:26:39;4.10;;;3.70;;
3337;SDS011;1682;49.286;10.788;2023-09-07T16:29:26;4.17;;;3.77;;
3337;SDS011;1682;49.286;10.788;2023-09-07T16:32:15;3.73;;;2.60;;
3337;SDS011;1682;49.286;10.788;2023-09-07T16:35:03;4.43;;;3.80;;
3337;SDS011;1682;49.286;10.788;2023-09-07T16:37:51;5.53;;;4.10;;
3337;SDS011;1682;49.286;10.788;2023-09-07T16:40:38;5.70;;;4.67;;
3337;SDS011;1682;49.286;10.788;2023-09-07T16:43:26;6.93;;;5.87;;
3337;SDS011;1682;49.286;10.788;2023-09-07T16:46:13;6.13;;;5.30;;
3337;SDS011;1682;49.286;10.788;2023-09-07T16:49:02;15.60;;;9.33;;
3337;SDS011;1682;49.286;10.788;2023-09-07T16:51:50;5.13;;;4.50;;
3337;SDS011;1682;49.286;10.788;2023-09-07T16:54:37;9.03;;;6.53;;
3337;SDS011;1682;49.286;10.788;2023-09-07T16:57:26;5.20;;;4.70;;
3337;SDS011;1682;49.286;10.788;2023-09-07T17:00:15;4.50;;;4.10;;
3337;SDS011;1682;49.286;10.788;2023-09-07T17:03:03;12.27;;;7.67;;
3337;SDS011;1682;49.286;10.788;2023-09-07T17:05:53;5.00;;;4.50;;
3337;SDS011;1682;49.286;10.788;2023-09-07T17:08:40;5.80;;;5.20;;
3337;SDS011;1682;49.286;10.788;2023-09-07T17:11:28;6.17;;;5.67;;